createdAt,value
2022-12-17T00:00:47.343Z,57.8
2022-12-17T00:05:47.261Z,57.9
2022-12-17T00:10:47.260Z,57.7
2022-12-17T00:20:47.284Z,57.6
2022-12-17T00:25:47.283Z,57.9
2022-12-17T00:35:47.253Z,58
2022-12-17T00:40:47.323Z,58.1
2022-12-17T00:50:47.258Z,58
2022-12-17T01:00:47.431Z,58.2
2022-12-17T01:10:47.267Z,57.6
2022-12-17T01:15:47.287Z,57.7
2022-12-17T01:25:47.284Z,57.4
2022-12-17T01:30:47.290Z,57.5
2022-12-17T01:35:47.288Z,57.7
2022-12-17T01:45:47.413Z,57.7
2022-12-17T01:50:47.286Z,57.6
2022-12-17T02:00:47.340Z,57.5
2022-12-17T02:10:47.299Z,57.5
2022-12-17T02:15:47.278Z,57.4
2022-12-17T02:20:47.275Z,57.5
2022-12-17T02:25:47.298Z,57.6
2022-12-17T02:35:47.323Z,57.9
2022-12-17T02:40:47.294Z,57.8
2022-12-17T02:45:47.348Z,57.6
2022-12-17T02:55:47.327Z,57.4
2022-12-17T03:05:47.307Z,57.3
2022-12-17T03:15:47.340Z,57.1
2022-12-17T03:25:47.287Z,57.4
2022-12-17T03:30:49.303Z,57.3
2022-12-17T03:40:47.518Z,57.7
2022-12-17T03:45:47.425Z,57.6
2022-12-17T03:55:47.305Z,57.2
2022-12-17T04:05:47.320Z,57.4
2022-12-17T04:10:47.313Z,57.3
2022-12-17T04:20:47.313Z,56.9
2022-12-17T04:25:47.344Z,57.1
2022-12-17T04:35:47.325Z,57.3
2022-12-17T04:40:47.315Z,57.5
2022-12-17T04:45:47.349Z,57.4
2022-12-17T04:55:47.303Z,57.1
2022-12-17T05:00:47.321Z,57
2022-12-17T05:05:47.350Z,56.9
2022-12-17T05:15:52.923Z,57
2022-12-17T05:25:47.334Z,57
2022-12-17T05:30:47.385Z,57.1
2022-12-17T05:35:47.330Z,57.3
2022-12-17T05:45:47.336Z,57.2
2022-12-17T05:50:47.312Z,57.1
2022-12-17T05:55:47.331Z,57.1
2022-12-17T06:00:47.336Z,56.9
2022-12-17T06:10:47.346Z,56.7
2022-12-17T06:15:47.371Z,56.7
2022-12-17T06:25:47.339Z,56.4
2022-12-17T06:35:47.368Z,56.8
2022-12-17T06:45:47.352Z,56.7
2022-12-17T06:55:47.355Z,56.4
2022-12-17T07:00:47.411Z,56.2
2022-12-17T07:05:47.344Z,56.1
2022-12-17T07:15:47.452Z,56
2022-12-17T07:20:47.420Z,55.8
2022-12-17T07:30:51.329Z,55.8
2022-12-17T07:40:47.398Z,56.3
2022-12-17T07:50:47.367Z,56
2022-12-17T07:55:47.370Z,55.9
2022-12-17T08:05:47.449Z,55.7
2022-12-17T08:10:47.430Z,55.6
2022-12-17T08:20:47.585Z,55.7
2022-12-17T08:25:47.685Z,55.6
2022-12-17T08:35:47.354Z,56
2022-12-17T08:40:47.376Z,56
2022-12-17T08:50:47.398Z,55.9
2022-12-17T09:00:47.378Z,55.8
2022-12-17T09:10:47.400Z,55.6
2022-12-17T09:15:47.379Z,55.5
2022-12-17T09:25:47.359Z,55.5
2022-12-17T09:30:47.472Z,55.5
2022-12-17T09:40:47.375Z,55.8
2022-12-17T09:45:47.400Z,55.6
2022-12-17T09:50:47.408Z,55.5
2022-12-17T10:00:47.373Z,55.6
2022-12-17T10:05:47.390Z,55.4
2022-12-17T10:15:47.461Z,55.6
2022-12-17T10:20:47.392Z,55.5
2022-12-17T10:30:47.484Z,55.5
2022-12-17T10:35:47.407Z,55.8
2022-12-17T10:40:47.380Z,55.8
2022-12-17T10:45:47.400Z,55.8
2022-12-17T10:55:47.410Z,55.9
2022-12-17T11:00:50.014Z,55.9
2022-12-17T11:10:47.403Z,55.9
2022-12-17T11:15:47.509Z,55.9
2022-12-17T11:25:47.383Z,55.9
2022-12-17T11:30:47.482Z,55.9
2022-12-17T11:35:47.431Z,56.2
2022-12-17T11:45:47.422Z,55.9
2022-12-17T11:50:47.406Z,56.1
2022-12-17T12:00:47.422Z,49.1
2022-12-17T12:05:49.816Z,46.1
2022-12-17T12:15:47.478Z,50.1
2022-12-17T12:20:47.443Z,51.5
2022-12-17T12:25:47.404Z,51.7
2022-12-17T12:30:47.413Z,52
2022-12-17T12:35:47.416Z,52.8
2022-12-17T12:45:47.500Z,53.9
2022-12-17T12:55:47.391Z,54.2
2022-12-17T13:00:47.419Z,54.1
2022-12-17T13:10:47.422Z,54.7
2022-12-17T13:15:47.414Z,54.7
2022-12-17T13:25:47.412Z,53.8
2022-12-17T13:35:47.447Z,54
2022-12-17T13:45:47.510Z,54.3
2022-12-17T13:55:47.443Z,54.1
2022-12-17T14:05:47.422Z,53.8
2022-12-17T14:15:47.448Z,53.9
2022-12-17T14:20:47.424Z,53.8
2022-12-17T14:31:24.307Z,53.8
2022-12-17T14:40:47.460Z,54.3
2022-12-17T14:50:47.432Z,54
2022-12-17T14:55:52.052Z,54
2022-12-17T15:05:47.473Z,54
2022-12-17T15:15:47.420Z,53.9
2022-12-17T15:20:47.418Z,53.9
2022-12-17T15:25:47.486Z,53.8
2022-12-17T15:35:47.440Z,50
2022-12-17T15:40:47.439Z,52.2
2022-12-17T15:50:47.470Z,52.7
2022-12-17T15:55:47.464Z,53.3
2022-12-17T16:05:47.440Z,54.1
2022-12-17T16:15:47.586Z,53.6
2022-12-17T16:25:47.431Z,53.6
2022-12-17T16:35:47.469Z,53.8
2022-12-17T16:45:47.447Z,54.3
2022-12-17T16:55:47.476Z,54
2022-12-17T17:05:47.445Z,54.1
2022-12-17T17:10:47.454Z,54.1
2022-12-17T17:15:47.551Z,53.9
2022-12-17T17:25:58.323Z,53.9
2022-12-17T17:30:47.453Z,53.8
2022-12-17T17:40:47.486Z,53.9
2022-12-17T17:50:47.466Z,54.1
2022-12-17T18:00:47.484Z,53.8
2022-12-17T18:10:47.450Z,53.8
2022-12-17T18:15:47.507Z,53.8
2022-12-17T18:20:47.495Z,53.9
2022-12-17T18:25:47.467Z,53.9
2022-12-17T18:35:47.470Z,53.9
2022-12-17T18:45:47.500Z,54.1
2022-12-17T18:55:47.464Z,54.1
2022-12-17T19:00:47.523Z,54.2
2022-12-17T19:05:52.595Z,54.1
2022-12-17T19:10:47.484Z,54.2
2022-12-17T19:20:47.478Z,54.8
2022-12-17T19:30:47.502Z,54.8
2022-12-17T19:40:47.482Z,55.4
2022-12-17T19:45:47.549Z,55.6
2022-12-17T19:55:47.576Z,54.9
2022-12-17T20:05:47.481Z,54.7
2022-12-17T20:10:47.484Z,54.6
2022-12-17T20:15:47.521Z,54.5
2022-12-17T20:25:47.486Z,54.5
2022-12-17T20:30:47.494Z,54.5
2022-12-17T20:35:47.526Z,54.3
2022-12-17T20:45:47.559Z,54.6
2022-12-17T20:50:47.501Z,54.5
2022-12-17T21:00:47.596Z,54.1
2022-12-17T21:10:47.513Z,54.1
2022-12-17T21:15:47.521Z,53.9
2022-12-17T21:25:47.542Z,53.9
2022-12-17T21:35:47.517Z,53.8
2022-12-17T21:45:47.571Z,54.2
2022-12-17T21:50:47.648Z,54.3
2022-12-17T22:00:47.530Z,54.4
2022-12-17T22:05:47.547Z,54.3
2022-12-17T22:15:48.319Z,54.4
2022-12-17T22:25:47.556Z,54.2
2022-12-17T22:37:57.846Z,54
2022-12-17T22:45:47.550Z,54.5
2022-12-17T22:55:47.528Z,54.5
2022-12-17T23:05:47.539Z,54.3
2022-12-17T23:10:47.525Z,54.3
2022-12-17T23:15:47.600Z,54.3
2022-12-17T23:25:47.545Z,54
2022-12-17T23:30:47.600Z,53.9
2022-12-17T23:40:47.545Z,53.9
2022-12-17T23:50:47.575Z,54.3
2022-12-17T23:55:47.549Z,54.4
